Pagina principale
METAR-TAF:

METAR-TAF

Aeroporti :

Aeroporto di Francoforte sul Meno

Francoforte sul Meno, Germania

latitudine: 50-03N, longitudine: 008-36E, altezza: 111 m

Osservazione

Il bollettino è stato emesso 32 minuti fa, alle 22:20 UTC
Vento 2 kt da direzioni variabili
Temperature 14°C
Umidità 88%
Pressione 1021 hPa
Visibilità 10 km o più
nessuna nube inferiore a 1500 m e nessun cumulonembo

METAR: EDDF 162220Z VRB02KT CAVOK 14/12 Q1021 NOSIG

Ora: 00:52 (22:52 UTC)

Previsione

Il bollettino è stato emesso 5 ore e 52 minuti fa, alle 17:00 UTC
Previsione valida dal 16 alle 18 UTC al 17 alle 24 UTC
Vento 6 kt da ovest/sud-ovest
Visibilità 10 km o più
nessuna nube inferiore a 1500 m e nessun cumulonembo
Evoluzione graduale
dal 16 alle 18 UTC al 16 alle 21 UTC
Vento 4 kt da est/nord-est

TAF: EDDF 161700Z 1618/1724 24006KT CAVOK BECMG 1618/1621 06004KT

Osservazioni e previsioni meteorologiche di più di 4000 aeroporti (messaggi METAR e TAF).

Le stazioni disponibili sono rappresentate dai dischi gialli e rossi sulla carta.

Puntare il mouse per vedere il nome della stazione.

Clicca sopra per visualizzare le osservazioni e previsioni meteorologiche.

Per cambiare la mappa : fare clic sui pulsanti verdi con una croce nera per ingrandire, il pulsante verde con un trattino per diminuire, o sulla freccia verde per le mappe adiacenti.


METAR-TAF: